createdAt,value
2022-11-18T00:00:12.584Z,96915.00
2022-11-18T00:02:43.539Z,96914.00
2022-11-18T00:05:14.606Z,96906.00
2022-11-18T00:07:45.587Z,96914.00
2022-11-18T00:10:17.232Z,96911.00
2022-11-18T00:13:06.830Z,96908.00
2022-11-18T00:15:37.794Z,96916.00
2022-11-18T00:18:08.918Z,96900.00
2022-11-18T00:20:39.795Z,96903.00
2022-11-18T00:23:10.631Z,96905.00
2022-11-18T00:25:41.476Z,96911.00
2022-11-18T00:28:12.323Z,96901.00
2022-11-18T00:30:43.163Z,96911.00
2022-11-18T00:33:14.004Z,96905.00
2022-11-18T00:35:53.600Z,96895.00
2022-11-18T00:38:26.141Z,96901.00
2022-11-18T00:41:07.046Z,96911.00
2022-11-18T00:43:38.520Z,96905.00
2022-11-18T00:46:11.841Z,96913.00
2022-11-18T00:48:42.691Z,96913.00
2022-11-18T00:51:18.599Z,96914.00
2022-11-18T00:53:49.426Z,96915.00
2022-11-18T00:56:20.240Z,96907.00
2022-11-18T00:58:51.083Z,96902.00
2022-11-18T01:01:22.043Z,96912.00
2022-11-18T01:03:53.164Z,96920.00
2022-11-18T01:06:24.727Z,96913.00
2022-11-18T01:08:55.690Z,96916.00
2022-11-18T01:11:45.432Z,96928.00
2022-11-18T01:14:16.296Z,96924.00
2022-11-18T01:16:51.306Z,96921.00
2022-11-18T01:19:23.825Z,96921.00
2022-11-18T01:21:56.516Z,96916.00
2022-11-18T01:24:27.392Z,96920.00
2022-11-18T01:26:58.567Z,96917.00
2022-11-18T01:29:29.744Z,96930.00
2022-11-18T01:34:51.411Z,96928.00
2022-11-18T01:37:22.307Z,96925.00
2022-11-18T01:39:53.145Z,96925.00
2022-11-18T01:42:24.584Z,96932.00
2022-11-18T01:45:10.660Z,96929.00
2022-11-18T01:48:05.148Z,96934.00
2022-11-18T01:50:40.035Z,96929.00
2022-11-18T01:53:21.526Z,96940.00
2022-11-18T01:55:56.692Z,96949.00
2022-11-18T01:58:52.324Z,96953.00
2022-11-18T02:01:23.602Z,96947.00
2022-11-18T02:03:55.386Z,96956.00
2022-11-18T02:06:26.940Z,96951.00
2022-11-18T02:08:58.288Z,96957.00
2022-11-18T02:11:48.143Z,96955.00
2022-11-18T02:14:42.576Z,96957.00
2022-11-18T02:17:45.521Z,96965.00
2022-11-18T02:20:31.461Z,96968.00
2022-11-18T02:23:21.851Z,96969.00
2022-11-18T02:25:52.647Z,96960.00
2022-11-18T02:28:48.242Z,96968.00
2022-11-18T02:31:53.544Z,96976.00
2022-11-18T02:34:33.734Z,96965.00
2022-11-18T02:37:24.918Z,96971.00
2022-11-18T02:40:11.403Z,96968.00
2022-11-18T02:42:50.929Z,96967.00
2022-11-18T02:45:22.945Z,96973.00
2022-11-18T02:47:56.775Z,96967.00
2022-11-18T02:50:30.010Z,96972.00
2022-11-18T02:53:04.659Z,96969.00
2022-11-18T02:55:38.464Z,96978.00
2022-11-18T02:58:09.726Z,96977.00
2022-11-18T03:00:40.740Z,96977.00
2022-11-18T03:03:34.903Z,96981.00
2022-11-18T03:06:15.467Z,96986.00
2022-11-18T03:09:10.344Z,96992.00
2022-11-18T03:12:06.721Z,96996.00
2022-11-18T03:14:53.733Z,97006.00
2022-11-18T03:17:39.751Z,97009.00
2022-11-18T03:20:29.617Z,97012.00
2022-11-18T03:23:13.442Z,97013.00
2022-11-18T03:26:05.094Z,97021.00
2022-11-18T03:28:49.767Z,97023.00
2022-11-18T03:31:30.144Z,97030.00
2022-11-18T03:34:15.227Z,97042.00
2022-11-18T03:36:52.235Z,97043.00
2022-11-18T03:39:25.519Z,97055.00
2022-11-18T03:42:08.958Z,97061.00
2022-11-18T03:44:49.549Z,97065.00
2022-11-18T03:47:35.020Z,97063.00
2022-11-18T03:50:21.919Z,97070.00
2022-11-18T03:52:54.026Z,97074.00
2022-11-18T03:55:30.891Z,97078.00
2022-11-18T03:58:32.147Z,97081.00
2022-11-18T04:01:11.588Z,97082.00
2022-11-18T04:03:43.548Z,97089.00
2022-11-18T04:06:30.440Z,97093.00
2022-11-18T04:09:10.353Z,97089.00
2022-11-18T04:12:02.812Z,97090.00
2022-11-18T04:14:37.893Z,97098.00
2022-11-18T04:17:13.602Z,97094.00
2022-11-18T04:19:44.471Z,97094.00
2022-11-18T04:22:15.594Z,97100.00
2022-11-18T04:24:46.457Z,97102.00
2022-11-18T04:27:17.328Z,97100.00
2022-11-18T04:29:48.185Z,97099.00
2022-11-18T04:32:19.007Z,97107.00
2022-11-18T04:34:49.815Z,97104.00
2022-11-18T04:37:20.767Z,97107.00
2022-11-18T04:39:52.149Z,97116.00
2022-11-18T04:42:23.216Z,97111.00
2022-11-18T04:44:54.080Z,97113.00
2022-11-18T04:47:25.045Z,97121.00
2022-11-18T04:49:55.861Z,97140.00
2022-11-18T04:52:26.799Z,97115.00
2022-11-18T04:54:57.656Z,97108.00
2022-11-18T04:57:28.513Z,97113.00
2022-11-18T04:59:59.332Z,97114.00
2022-11-18T05:02:30.174Z,97111.00
2022-11-18T05:05:00.993Z,97114.00
2022-11-18T05:07:31.934Z,97121.00
2022-11-18T05:10:02.867Z,97113.00
2022-11-18T05:12:48.854Z,97130.00
2022-11-18T05:15:23.794Z,97123.00
2022-11-18T05:17:54.681Z,97131.00
2022-11-18T05:20:25.612Z,97126.00
2022-11-18T05:22:56.464Z,97139.00
2022-11-18T05:25:27.270Z,97139.00
2022-11-18T05:27:58.114Z,97143.00
2022-11-18T05:30:28.936Z,97148.00
2022-11-18T05:32:59.779Z,97142.00
2022-11-18T05:35:30.585Z,97147.00
2022-11-18T05:38:01.783Z,97153.00
2022-11-18T05:40:32.743Z,97147.00
2022-11-18T05:43:12.226Z,97156.00
2022-11-18T05:45:44.465Z,97163.00
2022-11-18T05:48:15.345Z,97154.00
2022-11-18T05:50:52.027Z,97165.00
2022-11-18T05:53:25.156Z,97170.00
2022-11-18T05:56:34.672Z,97185.00
2022-11-18T05:59:06.389Z,97173.00
2022-11-18T06:01:47.938Z,97170.00
2022-11-18T06:04:53.730Z,97172.00
2022-11-18T06:07:39.883Z,97180.00
2022-11-18T06:10:22.083Z,97173.00
2022-11-18T06:12:56.957Z,97177.00
2022-11-18T06:15:37.395Z,97183.00
2022-11-18T06:18:26.453Z,97185.00
2022-11-18T06:21:01.631Z,97195.00
2022-11-18T06:23:39.423Z,97197.00
2022-11-18T06:26:12.202Z,97191.00
2022-11-18T06:28:46.084Z,97193.00
2022-11-18T06:31:16.919Z,97196.00
2022-11-18T06:33:47.877Z,97198.00
2022-11-18T06:36:18.736Z,97206.00
2022-11-18T06:38:49.573Z,97200.00
2022-11-18T06:41:20.397Z,97211.00
2022-11-18T06:43:51.289Z,97207.00
2022-11-18T06:46:40.666Z,97215.00
2022-11-18T06:49:11.656Z,97220.00
2022-11-18T06:51:42.604Z,97220.00
2022-11-18T06:54:17.324Z,97224.00
2022-11-18T06:56:48.322Z,97234.00
2022-11-18T06:59:23.681Z,97231.00
2022-11-18T07:01:54.903Z,97234.00
2022-11-18T07:04:25.725Z,97242.00
2022-11-18T07:06:56.716Z,97255.00
2022-11-18T07:09:27.584Z,97272.00
2022-11-18T07:11:58.427Z,97243.00
2022-11-18T07:14:29.263Z,97249.00
2022-11-18T07:17:00.291Z,97257.00
2022-11-18T07:19:35.583Z,97257.00
2022-11-18T07:22:08.128Z,97260.00
2022-11-18T07:24:39.016Z,97275.00
2022-11-18T07:27:09.863Z,97279.00
2022-11-18T07:29:40.679Z,97274.00
2022-11-18T07:32:11.578Z,97283.00
2022-11-18T07:34:42.454Z,97280.00
2022-11-18T07:37:13.272Z,97292.00
2022-11-18T07:39:44.193Z,97290.00
2022-11-18T07:42:15.000Z,97291.00
2022-11-18T07:44:45.938Z,97294.00
2022-11-18T07:47:16.856Z,97300.00
2022-11-18T07:49:47.742Z,97299.00
2022-11-18T07:52:18.572Z,97301.00
2022-11-18T07:54:49.429Z,97307.00
2022-11-18T07:57:20.363Z,97307.00
2022-11-18T07:59:51.376Z,97308.00
2022-11-18T08:02:22.267Z,97321.00
2022-11-18T08:04:53.285Z,97316.00
2022-11-18T08:07:24.238Z,97327.00
2022-11-18T08:09:55.119Z,97321.00
2022-11-18T08:12:25.979Z,97328.00
2022-11-18T08:14:57.309Z,97339.00
2022-11-18T08:17:28.243Z,97338.00
2022-11-18T08:19:59.053Z,97335.00
2022-11-18T08:22:29.884Z,97340.00
2022-11-18T08:25:00.788Z,97342.00
2022-11-18T08:27:32.477Z,97341.00
2022-11-18T08:30:03.642Z,97352.00
2022-11-18T08:32:34.535Z,97346.00
2022-11-18T08:35:10.870Z,97358.00
2022-11-18T08:37:42.556Z,97354.00
2022-11-18T08:40:13.947Z,97358.00
2022-11-18T08:42:44.972Z,97361.00
2022-11-18T08:45:15.867Z,97380.00
2022-11-18T08:47:46.735Z,97361.00
2022-11-18T08:50:17.814Z,97363.00
2022-11-18T08:52:48.663Z,97362.00
2022-11-18T08:55:19.508Z,97366.00
2022-11-18T08:57:50.797Z,97374.00
2022-11-18T09:00:21.717Z,97372.00
2022-11-18T09:02:52.729Z,97365.00
2022-11-18T09:05:23.702Z,97378.00
2022-11-18T09:07:54.549Z,97377.00
2022-11-18T09:10:25.399Z,97381.00
2022-11-18T09:13:07.102Z,97382.00
2022-11-18T09:15:47.486Z,97384.00
2022-11-18T09:18:18.360Z,97382.00
2022-11-18T09:20:57.705Z,97391.00
2022-11-18T09:23:28.827Z,97392.00
2022-11-18T09:26:05.364Z,97391.00
2022-11-18T09:28:36.554Z,97391.00
2022-11-18T09:31:11.098Z,97396.00
2022-11-18T09:33:42.284Z,97395.00
2022-11-18T09:36:23.540Z,97402.00
2022-11-18T09:38:54.508Z,97405.00
2022-11-18T09:41:41.571Z,97408.00
2022-11-18T09:44:33.393Z,97408.00
2022-11-18T09:47:26.555Z,97402.00
2022-11-18T09:50:14.877Z,97409.00
2022-11-18T09:53:22.243Z,97407.00
2022-11-18T09:55:53.809Z,97415.00
2022-11-18T09:58:35.390Z,97418.00
2022-11-18T10:01:14.533Z,97423.00
2022-11-18T10:03:45.536Z,97410.00
2022-11-18T10:06:29.350Z,97424.00
2022-11-18T10:09:28.076Z,97424.00
2022-11-18T10:12:35.844Z,97427.00
2022-11-18T10:15:56.951Z,97438.00
2022-11-18T10:18:59.618Z,97427.00
2022-11-18T10:22:18.252Z,97441.00
2022-11-18T10:24:55.448Z,97437.00
2022-11-18T10:27:38.265Z,97442.00
2022-11-18T10:30:26.089Z,97442.00
2022-11-18T10:33:17.365Z,97444.00
2022-11-18T10:35:50.364Z,97437.00
2022-11-18T10:38:21.424Z,97441.00
2022-11-18T10:41:04.321Z,97444.00
2022-11-18T10:43:52.602Z,97441.00
2022-11-18T10:46:31.662Z,97433.00
2022-11-18T10:49:17.403Z,97448.00
2022-11-18T10:52:11.703Z,97451.00
2022-11-18T10:54:43.608Z,97443.00
2022-11-18T10:57:21.886Z,97450.00
2022-11-18T10:59:56.293Z,97440.00
2022-11-18T11:02:34.018Z,97441.00
2022-11-18T11:05:22.255Z,97443.00
2022-11-18T11:08:36.853Z,97449.00
2022-11-18T11:11:26.084Z,97451.00
2022-11-18T11:14:22.770Z,97454.00
2022-11-18T11:17:31.711Z,97460.00
2022-11-18T11:20:17.586Z,97452.00
2022-11-18T11:22:49.338Z,97466.00
2022-11-18T11:28:46.729Z,97470.00
2022-11-18T11:31:41.856Z,97477.00
2022-11-18T11:34:31.359Z,97469.00
2022-11-18T11:37:14.595Z,97473.00
2022-11-18T11:40:21.224Z,97478.00
2022-11-18T11:43:23.534Z,97470.00
2022-11-18T11:46:31.067Z,97478.00
2022-11-18T11:49:41.288Z,97481.00
2022-11-18T11:52:22.218Z,97484.00
2022-11-18T11:55:14.481Z,97477.00
2022-11-18T11:58:11.852Z,97475.00
2022-11-18T12:01:10.963Z,97471.00
2022-11-18T12:03:52.044Z,97473.00
2022-11-18T12:06:23.289Z,97471.00
2022-11-18T12:09:21.781Z,97470.00
2022-11-18T12:12:27.066Z,97473.00
2022-11-18T12:15:07.117Z,97483.00
2022-11-18T12:18:09.093Z,97481.00
2022-11-18T12:20:55.956Z,97486.00
2022-11-18T12:23:32.273Z,97491.00
2022-11-18T12:26:34.789Z,97498.00
2022-11-18T12:29:25.716Z,97492.00
2022-11-18T12:31:59.252Z,97490.00
2022-11-18T12:34:39.153Z,97494.00
2022-11-18T12:37:25.041Z,97491.00
2022-11-18T12:39:55.816Z,97492.00
2022-11-18T12:43:01.311Z,97489.00
2022-11-18T12:45:41.447Z,97493.00
2022-11-18T12:48:27.273Z,97496.00
2022-11-18T12:51:15.156Z,97505.00
2022-11-18T12:53:49.248Z,97495.00
2022-11-18T12:56:27.541Z,97498.00
2022-11-18T12:59:02.179Z,97513.00
2022-11-18T13:01:37.055Z,97497.00
2022-11-18T13:04:19.980Z,97509.00
2022-11-18T13:06:54.248Z,97510.00
2022-11-18T13:09:26.684Z,97502.00
2022-11-18T13:12:06.030Z,97511.00
2022-11-18T13:15:00.849Z,97504.00
2022-11-18T13:17:58.509Z,97493.00
2022-11-18T13:20:37.757Z,97496.00
2022-11-18T13:23:33.048Z,97486.00
2022-11-18T13:26:17.835Z,97501.00
2022-11-18T13:28:54.582Z,97503.00
2022-11-18T13:32:21.994Z,97510.00
2022-11-18T13:34:56.676Z,97516.00
2022-11-18T13:37:30.718Z,97498.00
2022-11-18T13:40:01.702Z,97512.00
2022-11-18T13:42:33.040Z,97510.00
2022-11-18T13:45:04.589Z,97511.00
2022-11-18T13:47:59.449Z,97515.00
2022-11-18T13:50:39.823Z,97504.00
2022-11-18T13:53:34.072Z,97520.00
2022-11-18T13:56:41.139Z,97520.00
2022-11-18T13:59:22.968Z,97523.00
2022-11-18T14:02:00.184Z,97512.00
2022-11-18T14:04:32.166Z,97515.00
2022-11-18T14:07:32.714Z,97504.00
2022-11-18T14:10:08.568Z,97513.00
2022-11-18T14:12:39.455Z,97519.00
2022-11-18T14:15:40.522Z,97523.00
2022-11-18T14:18:25.223Z,97517.00
2022-11-18T14:20:56.545Z,97528.00
2022-11-18T14:23:34.214Z,97526.00
2022-11-18T14:26:07.154Z,97529.00
2022-11-18T14:28:38.939Z,97538.00
2022-11-18T14:31:31.394Z,97533.00
2022-11-18T14:34:24.217Z,97533.00
2022-11-18T14:36:56.425Z,97540.00
2022-11-18T14:39:32.468Z,97540.00
2022-11-18T14:42:05.645Z,97533.00
2022-11-18T14:44:36.825Z,97538.00
2022-11-18T14:47:27.951Z,97541.00
2022-11-18T14:49:58.818Z,97540.00
2022-11-18T14:52:29.922Z,97540.00
2022-11-18T14:55:00.757Z,97542.00
2022-11-18T14:57:31.640Z,97535.00
2022-11-18T15:00:06.024Z,97549.00
2022-11-18T15:02:37.102Z,97551.00
2022-11-18T15:05:08.816Z,97542.00
2022-11-18T15:07:39.752Z,97544.00
2022-11-18T15:10:15.057Z,97548.00
2022-11-18T15:12:46.016Z,97548.00
2022-11-18T15:15:17.218Z,97556.00
2022-11-18T15:17:53.659Z,97556.00
2022-11-18T15:20:24.928Z,97565.00
2022-11-18T15:22:55.790Z,97563.00
2022-11-18T15:25:26.679Z,97574.00
2022-11-18T15:27:57.593Z,97583.00
2022-11-18T15:30:28.463Z,97575.00
2022-11-18T15:32:59.331Z,97583.00
2022-11-18T15:35:30.204Z,97587.00
2022-11-18T15:38:01.059Z,97588.00
2022-11-18T15:40:32.161Z,97582.00
2022-11-18T15:43:03.034Z,97595.00
2022-11-18T15:45:33.846Z,97592.00
2022-11-18T15:48:05.037Z,97602.00
2022-11-18T15:50:35.877Z,97594.00
2022-11-18T15:53:06.769Z,97598.00
2022-11-18T15:55:37.591Z,97593.00
2022-11-18T15:58:08.725Z,97591.00
2022-11-18T16:00:39.540Z,97587.00
2022-11-18T16:03:10.414Z,97589.00
2022-11-18T16:05:41.251Z,97598.00
2022-11-18T16:08:12.096Z,97595.00
2022-11-18T16:11:01.361Z,97601.00
2022-11-18T16:13:32.208Z,97595.00
2022-11-18T16:16:03.084Z,97605.00
2022-11-18T16:18:37.935Z,97611.00
2022-11-18T16:21:11.547Z,97617.00
2022-11-18T16:23:42.416Z,97611.00
2022-11-18T16:26:17.228Z,97613.00
2022-11-18T16:28:49.259Z,97610.00
2022-11-18T16:31:39.276Z,97621.00
2022-11-18T16:34:19.128Z,97614.00
2022-11-18T16:36:54.058Z,97610.00
2022-11-18T16:39:27.476Z,97618.00
2022-11-18T16:42:07.946Z,97608.00
2022-11-18T16:44:39.593Z,97615.00
2022-11-18T16:47:14.951Z,97620.00
2022-11-18T16:49:46.121Z,97627.00
2022-11-18T16:52:16.974Z,97635.00
2022-11-18T16:54:47.812Z,97636.00
2022-11-18T16:57:18.845Z,97638.00
2022-11-18T16:59:49.725Z,97638.00
2022-11-18T17:02:20.677Z,97635.00
2022-11-18T17:04:51.557Z,97652.00
2022-11-18T17:07:22.549Z,97642.00
2022-11-18T17:09:53.469Z,97659.00
2022-11-18T17:12:24.311Z,97656.00
2022-11-18T17:14:55.161Z,97669.00
2022-11-18T17:17:26.029Z,97661.00
2022-11-18T17:19:57.047Z,97661.00
2022-11-18T17:22:28.926Z,97661.00
2022-11-18T17:25:04.906Z,97662.00
2022-11-18T17:27:36.312Z,97664.00
2022-11-18T17:30:08.014Z,97667.00
2022-11-18T17:32:38.947Z,97664.00
2022-11-18T17:35:10.024Z,97668.00
2022-11-18T17:37:41.003Z,97672.00
2022-11-18T17:40:12.552Z,97669.00
2022-11-18T17:42:43.846Z,97699.00
2022-11-18T17:45:14.869Z,97673.00
2022-11-18T17:47:45.779Z,97690.00
2022-11-18T17:50:17.188Z,97673.00
2022-11-18T17:52:48.087Z,97674.00
2022-11-18T17:55:20.087Z,97677.00
2022-11-18T17:57:50.932Z,97673.00
2022-11-18T18:00:21.833Z,97684.00
2022-11-18T18:02:52.716Z,97687.00
2022-11-18T18:05:23.882Z,97691.00
2022-11-18T18:07:56.987Z,97695.00
2022-11-18T18:10:27.966Z,97707.00
2022-11-18T18:13:17.492Z,97691.00
2022-11-18T18:15:48.352Z,97696.00
2022-11-18T18:18:19.189Z,97699.00
2022-11-18T18:20:50.022Z,97691.00
2022-11-18T18:23:21.231Z,97696.00
2022-11-18T18:25:52.066Z,97719.00
2022-11-18T18:28:23.001Z,97688.00
2022-11-18T18:31:02.105Z,97698.00
2022-11-18T18:33:34.478Z,97702.00
2022-11-18T18:36:08.968Z,97697.00
2022-11-18T18:38:40.765Z,97714.00
2022-11-18T18:41:17.089Z,97704.00
2022-11-18T18:43:49.406Z,97714.00
2022-11-18T18:46:30.940Z,97709.00
2022-11-18T18:49:15.847Z,97709.00
2022-11-18T18:51:51.208Z,97712.00
2022-11-18T18:54:22.361Z,97720.00
2022-11-18T18:56:53.440Z,97712.00
2022-11-18T18:59:25.432Z,97715.00
2022-11-18T19:01:56.485Z,97718.00
2022-11-18T19:04:27.442Z,97716.00
2022-11-18T19:07:00.160Z,97718.00
2022-11-18T19:09:35.282Z,97721.00
2022-11-18T19:12:26.313Z,97721.00
2022-11-18T19:14:57.237Z,97731.00
2022-11-18T19:17:28.195Z,97733.00
2022-11-18T19:20:17.391Z,97731.00
2022-11-18T19:22:48.292Z,97744.00
2022-11-18T19:25:19.252Z,97743.00
2022-11-18T19:27:53.089Z,97744.00
2022-11-18T19:30:24.270Z,97747.00
2022-11-18T19:32:56.329Z,97747.00
2022-11-18T19:37:59.260Z,97747.00
2022-11-18T19:40:30.104Z,97742.00
2022-11-18T19:43:00.989Z,97747.00
2022-11-18T19:45:31.816Z,97747.00
2022-11-18T19:48:03.510Z,97747.00
2022-11-18T19:50:34.336Z,97756.00
2022-11-18T19:53:25.177Z,97753.00
2022-11-18T19:55:57.736Z,97755.00
2022-11-18T19:58:31.625Z,97749.00
2022-11-18T20:01:27.498Z,97744.00
2022-11-18T20:04:02.945Z,97749.00
2022-11-18T20:06:36.345Z,97748.00
2022-11-18T20:09:09.357Z,97747.00
2022-11-18T20:11:40.754Z,97748.00
2022-11-18T20:14:12.617Z,97742.00
2022-11-18T20:16:46.542Z,97739.00
2022-11-18T20:19:17.705Z,97745.00
2022-11-18T20:21:49.348Z,97736.00
2022-11-18T20:24:20.282Z,97739.00
2022-11-18T20:26:51.130Z,97739.00
2022-11-18T20:29:22.285Z,97742.00
2022-11-18T20:31:53.723Z,97747.00
2022-11-18T20:34:24.629Z,97745.00
2022-11-18T20:36:55.722Z,97766.00
2022-11-18T20:39:26.761Z,97752.00
2022-11-18T20:42:16.114Z,97757.00
2022-11-18T20:44:46.939Z,97749.00
2022-11-18T20:47:17.842Z,97754.00
2022-11-18T20:49:48.697Z,97768.00
2022-11-18T20:52:19.639Z,97761.00
2022-11-18T20:54:50.504Z,97755.00
2022-11-18T20:57:21.483Z,97760.00
2022-11-18T20:59:52.420Z,97762.00
2022-11-18T21:02:23.335Z,97777.00
2022-11-18T21:04:54.260Z,97777.00
2022-11-18T21:07:25.238Z,97780.00
2022-11-18T21:09:59.534Z,97775.00
2022-11-18T21:12:30.524Z,97785.00
2022-11-18T21:15:07.470Z,97788.00
2022-11-18T21:17:39.038Z,97783.00
2022-11-18T21:20:30.389Z,97790.00
2022-11-18T21:23:01.275Z,97790.00
2022-11-18T21:25:32.971Z,97786.00
2022-11-18T21:28:06.973Z,97785.00
2022-11-18T21:30:38.329Z,97788.00
2022-11-18T21:33:09.260Z,97790.00
2022-11-18T21:35:42.948Z,97788.00
2022-11-18T21:38:13.809Z,97789.00
2022-11-18T21:40:44.660Z,97794.00
2022-11-18T21:43:15.580Z,97791.00
2022-11-18T21:45:46.432Z,97791.00
2022-11-18T21:48:17.284Z,97789.00
2022-11-18T21:50:48.118Z,97790.00
2022-11-18T21:53:20.058Z,97795.00
2022-11-18T21:55:50.892Z,97793.00
2022-11-18T21:58:21.761Z,97798.00
2022-11-18T22:00:52.847Z,97792.00
2022-11-18T22:03:23.763Z,97793.00
2022-11-18T22:05:55.363Z,97795.00
2022-11-18T22:08:26.748Z,97799.00
2022-11-18T22:10:57.837Z,97800.00
2022-11-18T22:13:29.774Z,97808.00
2022-11-18T22:16:08.303Z,97808.00
2022-11-18T22:18:42.395Z,97802.00
2022-11-18T22:21:19.810Z,97807.00
2022-11-18T22:23:50.647Z,97803.00
2022-11-18T22:26:21.905Z,97805.00
2022-11-18T22:28:54.996Z,97816.00
2022-11-18T22:31:27.964Z,97825.00
2022-11-18T22:33:58.825Z,97825.00
2022-11-18T22:36:29.740Z,97829.00
2022-11-18T22:39:01.189Z,97834.00
2022-11-18T22:41:50.438Z,97826.00
2022-11-18T22:44:21.306Z,97831.00
2022-11-18T22:46:52.540Z,97826.00
2022-11-18T22:49:23.426Z,97837.00
2022-11-18T22:51:54.315Z,97841.00
2022-11-18T22:54:40.855Z,97834.00
2022-11-18T22:57:11.743Z,97839.00
2022-11-18T22:59:42.591Z,97837.00
2022-11-18T23:02:13.450Z,97828.00
2022-11-18T23:04:44.313Z,97831.00
2022-11-18T23:07:15.168Z,97829.00
2022-11-18T23:09:46.151Z,97825.00
2022-11-18T23:12:35.627Z,97827.00
2022-11-18T23:15:07.122Z,97827.00
2022-11-18T23:17:37.950Z,97837.00
2022-11-18T23:20:09.703Z,97834.00
2022-11-18T23:22:40.621Z,97839.00
2022-11-18T23:25:11.479Z,97839.00
2022-11-18T23:27:42.320Z,97841.00
2022-11-18T23:30:13.563Z,97842.00
2022-11-18T23:32:44.436Z,97842.00
2022-11-18T23:35:15.355Z,97837.00
2022-11-18T23:37:46.233Z,97839.00
2022-11-18T23:40:17.240Z,97832.00
2022-11-18T23:42:48.108Z,97827.00
2022-11-18T23:45:18.931Z,97839.00
2022-11-18T23:47:49.783Z,97826.00
2022-11-18T23:50:20.592Z,97822.00
2022-11-18T23:52:54.108Z,97831.00
2022-11-18T23:55:24.983Z,97830.00
2022-11-18T23:57:55.883Z,97821.00
